sensor_id;sensor_type;location;lat;lon;timestamp;temperature;humidity
9768;DHT22;4923;52.520;13.494;2023-09-19T00:00:24;17.10;99.90
9768;DHT22;4923;52.520;13.494;2023-09-19T00:03:14;17.10;99.90
9768;DHT22;4923;52.520;13.494;2023-09-19T00:06:01;17.10;99.90
9768;DHT22;4923;52.520;13.494;2023-09-19T00:08:48;17.10;99.90
9768;DHT22;4923;52.520;13.494;2023-09-19T00:11:35;17.10;99.90
9768;DHT22;4923;52.520;13.494;2023-09-19T00:14:24;17.00;99.90
9768;DHT22;4923;52.520;13.494;2023-09-19T00:17:11;17.00;99.90
9768;DHT22;4923;52.520;13.494;2023-09-19T00:20:00;17.00;99.90
9768;DHT22;4923;52.520;13.494;2023-09-19T00:22:52;16.90;99.90
9768;DHT22;4923;52.520;13.494;2023-09-19T00:25:39;16.90;99.90
9768;DHT22;4923;52.520;13.494;2023-09-19T00:28:27;16.90;99.90
9768;DHT22;4923;52.520;13.494;2023-09-19T00:31:15;16.80;99.90
9768;DHT22;4923;52.520;13.494;2023-09-19T00:34:02;16.80;99.90
9768;DHT22;4923;52.520;13.494;2023-09-19T00:36:57;16.80;99.90
9768;DHT22;4923;52.520;13.494;2023-09-19T00:39:45;16.80;99.90
9768;DHT22;4923;52.520;13.494;2023-09-19T00:42:32;16.80;99.90
9768;DHT22;4923;52.520;13.494;2023-09-19T00:45:19;16.70;99.90
9768;DHT22;4923;52.520;13.494;2023-09-19T00:48:06;16.70;99.90
9768;DHT22;4923;52.520;13.494;2023-09-19T00:50:55;16.70;99.90
9768;DHT22;4923;52.520;13.494;2023-09-19T00:53:45;16.70;99.90
9768;DHT22;4923;52.520;13.494;2023-09-19T00:56:32;16.70;99.90
9768;DHT22;4923;52.520;13.494;2023-09-19T00:59:19;16.60;99.90
9768;DHT22;4923;52.520;13.494;2023-09-19T01:02:08;16.60;99.90
9768;DHT22;4923;52.520;13.494;2023-09-19T01:04:55;16.60;99.90
9768;DHT22;4923;52.520;13.494;2023-09-19T01:07:42;16.60;99.90
9768;DHT22;4923;52.520;13.494;2023-09-19T01:10:31;16.60;99.90
9768;DHT22;4923;52.520;13.494;2023-09-19T01:13:25;16.60;99.90
9768;DHT22;4923;52.520;13.494;2023-09-19T01:16:32;16.50;99.90
9768;DHT22;4923;52.520;13.494;2023-09-19T01:19:53;16.50;99.90
9768;DHT22;4923;52.520;13.494;2023-09-19T01:22:56;16.50;99.90
9768;DHT22;4923;52.520;13.494;2023-09-19T01:26:05;16.50;99.90
9768;DHT22;4923;52.520;13.494;2023-09-19T01:29:01;16.50;99.90
9768;DHT22;4923;52.520;13.494;2023-09-19T01:31:58;16.50;99.90
9768;DHT22;4923;52.520;13.494;2023-09-19T01:34:48;16.50;99.90
9768;DHT22;4923;52.520;13.494;2023-09-19T01:37:35;16.50;99.90
9768;DHT22;4923;52.520;13.494;2023-09-19T01:40:23;16.60;99.90
9768;DHT22;4923;52.520;13.494;2023-09-19T01:43:18;16.60;99.90
9768;DHT22;4923;52.520;13.494;2023-09-19T01:46:12;16.70;99.90
9768;DHT22;4923;52.520;13.494;2023-09-19T01:49:09;16.70;99.90
9768;DHT22;4923;52.520;13.494;2023-09-19T01:52:05;16.70;99.90
9768;DHT22;4923;52.520;13.494;2023-09-19T01:55:01;16.80;99.90
9768;DHT22;4923;52.520;13.494;2023-09-19T01:58:01;16.90;99.90
9768;DHT22;4923;52.520;13.494;2023-09-19T02:00:51;16.90;99.90
9768;DHT22;4923;52.520;13.494;2023-09-19T02:03:40;16.90;99.90
9768;DHT22;4923;52.520;13.494;2023-09-19T02:06:28;16.90;99.90
9768;DHT22;4923;52.520;13.494;2023-09-19T02:09:15;16.80;99.90
9768;DHT22;4923;52.520;13.494;2023-09-19T02:12:03;16.80;99.90
9768;DHT22;4923;52.520;13.494;2023-09-19T02:14:50;16.70;99.90
9768;DHT22;4923;52.520;13.494;2023-09-19T02:17:37;16.60;99.90
9768;DHT22;4923;52.520;13.494;2023-09-19T02:20:24;16.50;99.90
9768;DHT22;4923;52.520;13.494;2023-09-19T02:23:14;16.40;99.90
9768;DHT22;4923;52.520;13.494;2023-09-19T02:26:02;16.40;99.90
9768;DHT22;4923;52.520;13.494;2023-09-19T02:28:50;16.30;99.90
9768;DHT22;4923;52.520;13.494;2023-09-19T02:31:38;16.30;99.90
9768;DHT22;4923;52.520;13.494;2023-09-19T02:34:25;16.30;99.90
9768;DHT22;4923;52.520;13.494;2023-09-19T02:37:13;16.30;99.90
9768;DHT22;4923;52.520;13.494;2023-09-19T02:40:03;16.20;99.90
9768;DHT22;4923;52.520;13.494;2023-09-19T02:42:54;16.20;99.90
9768;DHT22;4923;52.520;13.494;2023-09-19T02:45:41;16.20;99.90
9768;DHT22;4923;52.520;13.494;2023-09-19T02:48:28;16.20;99.90
9768;DHT22;4923;52.520;13.494;2023-09-19T02:51:17;16.20;99.90
9768;DHT22;4923;52.520;13.494;2023-09-19T02:54:04;16.20;99.90
9768;DHT22;4923;52.520;13.494;2023-09-19T02:56:53;16.20;99.90
9768;DHT22;4923;52.520;13.494;2023-09-19T02:59:40;16.20;99.90
9768;DHT22;4923;52.520;13.494;2023-09-19T03:02:27;16.30;99.90
9768;DHT22;4923;52.520;13.494;2023-09-19T03:05:18;16.40;99.90
9768;DHT22;4923;52.520;13.494;2023-09-19T03:08:06;16.30;99.90
9768;DHT22;4923;52.520;13.494;2023-09-19T03:10:53;16.30;99.90
9768;DHT22;4923;52.520;13.494;2023-09-19T03:13:41;16.40;99.90
9768;DHT22;4923;52.520;13.494;2023-09-19T03:16:31;16.40;99.90
9768;DHT22;4923;52.520;13.494;2023-09-19T03:19:19;16.60;99.90
9768;DHT22;4923;52.520;13.494;2023-09-19T03:22:06;16.70;99.90
9768;DHT22;4923;52.520;13.494;2023-09-19T03:24:53;16.70;99.90
9768;DHT22;4923;52.520;13.494;2023-09-19T03:27:40;16.70;99.90
9768;DHT22;4923;52.520;13.494;2023-09-19T03:30:29;16.70;99.90
9768;DHT22;4923;52.520;13.494;2023-09-19T03:33:15;16.80;99.90
9768;DHT22;4923;52.520;13.494;2023-09-19T03:36:03;16.80;99.90
9768;DHT22;4923;52.520;13.494;2023-09-19T03:38:51;16.90;99.90
9768;DHT22;4923;52.520;13.494;2023-09-19T03:41:38;16.90;99.90
9768;DHT22;4923;52.520;13.494;2023-09-19T03:44:25;16.90;99.90
9768;DHT22;4923;52.520;13.494;2023-09-19T03:47:13;17.00;99.90
9768;DHT22;4923;52.520;13.494;2023-09-19T03:50:00;17.10;99.90
9768;DHT22;4923;52.520;13.494;2023-09-19T03:52:47;17.10;99.90
9768;DHT22;4923;52.520;13.494;2023-09-19T03:55:33;17.10;99.90
9768;DHT22;4923;52.520;13.494;2023-09-19T03:58:21;17.20;99.90
9768;DHT22;4923;52.520;13.494;2023-09-19T04:01:08;17.20;99.90
9768;DHT22;4923;52.520;13.494;2023-09-19T04:03:56;17.20;99.90
9768;DHT22;4923;52.520;13.494;2023-09-19T04:06:43;17.20;99.90
9768;DHT22;4923;52.520;13.494;2023-09-19T04:09:30;17.20;99.90
9768;DHT22;4923;52.520;13.494;2023-09-19T04:12:17;17.10;99.90
9768;DHT22;4923;52.520;13.494;2023-09-19T04:15:04;17.10;99.90
9768;DHT22;4923;52.520;13.494;2023-09-19T04:17:52;17.10;99.90
9768;DHT22;4923;52.520;13.494;2023-09-19T04:20:40;17.00;99.90
9768;DHT22;4923;52.520;13.494;2023-09-19T04:23:27;17.10;99.90
9768;DHT22;4923;52.520;13.494;2023-09-19T04:26:14;17.10;99.90
9768;DHT22;4923;52.520;13.494;2023-09-19T04:29:02;17.10;99.90
9768;DHT22;4923;52.520;13.494;2023-09-19T04:31:50;17.10;99.90
9768;DHT22;4923;52.520;13.494;2023-09-19T04:34:37;17.10;99.90
9768;DHT22;4923;52.520;13.494;2023-09-19T04:37:25;17.10;99.90
9768;DHT22;4923;52.520;13.494;2023-09-19T04:40:12;17.10;99.90
9768;DHT22;4923;52.520;13.494;2023-09-19T04:43:00;17.10;99.90
9768;DHT22;4923;52.520;13.494;2023-09-19T04:45:48;17.10;99.90
9768;DHT22;4923;52.520;13.494;2023-09-19T04:48:36;17.10;99.90
9768;DHT22;4923;52.520;13.494;2023-09-19T04:51:23;17.10;99.90
9768;DHT22;4923;52.520;13.494;2023-09-19T04:54:12;17.00;99.90
9768;DHT22;4923;52.520;13.494;2023-09-19T04:57:00;17.10;99.90
9768;DHT22;4923;52.520;13.494;2023-09-19T04:59:47;17.00;99.90
9768;DHT22;4923;52.520;13.494;2023-09-19T05:02:35;17.00;99.90
9768;DHT22;4923;52.520;13.494;2023-09-19T05:05:23;17.00;99.90
9768;DHT22;4923;52.520;13.494;2023-09-19T05:08:11;17.00;99.90
9768;DHT22;4923;52.520;13.494;2023-09-19T05:11:03;16.90;99.90
9768;DHT22;4923;52.520;13.494;2023-09-19T05:13:49;16.90;99.90
9768;DHT22;4923;52.520;13.494;2023-09-19T05:16:38;16.80;99.90
9768;DHT22;4923;52.520;13.494;2023-09-19T05:19:26;16.80;99.90
9768;DHT22;4923;52.520;13.494;2023-09-19T05:22:13;16.80;99.90
9768;DHT22;4923;52.520;13.494;2023-09-19T05:24:59;16.80;99.90
9768;DHT22;4923;52.520;13.494;2023-09-19T05:27:53;16.80;99.90
9768;DHT22;4923;52.520;13.494;2023-09-19T05:30:39;16.90;99.90
9768;DHT22;4923;52.520;13.494;2023-09-19T05:33:26;16.90;99.90
9768;DHT22;4923;52.520;13.494;2023-09-19T05:36:13;16.90;99.90
9768;DHT22;4923;52.520;13.494;2023-09-19T05:39:02;16.90;99.90
9768;DHT22;4923;52.520;13.494;2023-09-19T05:41:50;16.80;99.90
9768;DHT22;4923;52.520;13.494;2023-09-19T05:44:38;16.80;99.90
9768;DHT22;4923;52.520;13.494;2023-09-19T05:47:25;16.80;99.90
9768;DHT22;4923;52.520;13.494;2023-09-19T05:50:12;16.80;99.90
9768;DHT22;4923;52.520;13.494;2023-09-19T05:53:00;16.80;99.90
9768;DHT22;4923;52.520;13.494;2023-09-19T05:55:47;16.70;99.90
9768;DHT22;4923;52.520;13.494;2023-09-19T05:58:35;16.80;99.90
9768;DHT22;4923;52.520;13.494;2023-09-19T06:01:23;16.70;99.90
9768;DHT22;4923;52.520;13.494;2023-09-19T06:04:10;16.80;99.90
9768;DHT22;4923;52.520;13.494;2023-09-19T06:06:57;16.70;99.90
9768;DHT22;4923;52.520;13.494;2023-09-19T06:09:44;16.80;99.90
9768;DHT22;4923;52.520;13.494;2023-09-19T06:12:30;16.80;99.90
9768;DHT22;4923;52.520;13.494;2023-09-19T06:15:19;16.80;99.90
9768;DHT22;4923;52.520;13.494;2023-09-19T06:18:11;16.90;99.90
9768;DHT22;4923;52.520;13.494;2023-09-19T06:21:05;17.00;99.90
9768;DHT22;4923;52.520;13.494;2023-09-19T06:23:53;17.00;99.90
9768;DHT22;4923;52.520;13.494;2023-09-19T06:26:40;17.00;99.90
9768;DHT22;4923;52.520;13.494;2023-09-19T06:29:27;17.20;99.90
9768;DHT22;4923;52.520;13.494;2023-09-19T06:32:14;17.30;99.90
9768;DHT22;4923;52.520;13.494;2023-09-19T06:35:02;17.40;99.90
9768;DHT22;4923;52.520;13.494;2023-09-19T06:37:53;17.40;99.90
9768;DHT22;4923;52.520;13.494;2023-09-19T06:40:40;17.50;99.90
9768;DHT22;4923;52.520;13.494;2023-09-19T06:43:28;17.50;99.90
9768;DHT22;4923;52.520;13.494;2023-09-19T06:46:16;17.60;99.90
9768;DHT22;4923;52.520;13.494;2023-09-19T06:49:03;17.80;99.90
9768;DHT22;4923;52.520;13.494;2023-09-19T06:51:55;17.90;99.90
9768;DHT22;4923;52.520;13.494;2023-09-19T06:54:43;18.00;99.90
9768;DHT22;4923;52.520;13.494;2023-09-19T06:57:29;18.10;99.90
9768;DHT22;4923;52.520;13.494;2023-09-19T07:00:17;18.20;99.90
9768;DHT22;4923;52.520;13.494;2023-09-19T07:03:07;18.40;99.90
9768;DHT22;4923;52.520;13.494;2023-09-19T07:05:57;18.50;99.90
9768;DHT22;4923;52.520;13.494;2023-09-19T07:08:45;18.80;99.90
9768;DHT22;4923;52.520;13.494;2023-09-19T07:11:32;18.90;99.90
9768;DHT22;4923;52.520;13.494;2023-09-19T07:14:19;19.30;99.90
9768;DHT22;4923;52.520;13.494;2023-09-19T07:17:06;19.60;99.90
9768;DHT22;4923;52.520;13.494;2023-09-19T07:19:53;19.80;99.90
9768;DHT22;4923;52.520;13.494;2023-09-19T07:22:40;20.00;99.90
9768;DHT22;4923;52.520;13.494;2023-09-19T07:25:29;20.10;99.90
9768;DHT22;4923;52.520;13.494;2023-09-19T07:28:16;20.30;99.90
9768;DHT22;4923;52.520;13.494;2023-09-19T07:31:03;20.60;99.90
9768;DHT22;4923;52.520;13.494;2023-09-19T07:33:50;20.60;99.90
9768;DHT22;4923;52.520;13.494;2023-09-19T07:36:37;20.50;99.90
9768;DHT22;4923;52.520;13.494;2023-09-19T07:39:25;20.40;99.90
9768;DHT22;4923;52.520;13.494;2023-09-19T07:42:13;20.20;99.90
9768;DHT22;4923;52.520;13.494;2023-09-19T07:45:03;19.60;99.90
9768;DHT22;4923;52.520;13.494;2023-09-19T07:47:51;19.70;99.90
9768;DHT22;4923;52.520;13.494;2023-09-19T07:50:38;19.60;99.90
9768;DHT22;4923;52.520;13.494;2023-09-19T07:53:25;19.80;99.90
9768;DHT22;4923;52.520;13.494;2023-09-19T07:56:13;19.60;99.90
9768;DHT22;4923;52.520;13.494;2023-09-19T07:59:02;19.80;99.90
9768;DHT22;4923;52.520;13.494;2023-09-19T08:01:49;19.80;99.90
9768;DHT22;4923;52.520;13.494;2023-09-19T08:04:36;19.80;99.90
9768;DHT22;4923;52.520;13.494;2023-09-19T08:07:23;19.70;99.90
9768;DHT22;4923;52.520;13.494;2023-09-19T08:10:10;19.70;99.90
9768;DHT22;4923;52.520;13.494;2023-09-19T08:12:58;19.70;99.90
9768;DHT22;4923;52.520;13.494;2023-09-19T08:15:47;19.70;99.90
9768;DHT22;4923;52.520;13.494;2023-09-19T08:18:34;19.90;99.90
9768;DHT22;4923;52.520;13.494;2023-09-19T08:21:21;20.10;99.90
9768;DHT22;4923;52.520;13.494;2023-09-19T08:24:09;20.10;99.90
9768;DHT22;4923;52.520;13.494;2023-09-19T08:26:57;20.00;99.90
9768;DHT22;4923;52.520;13.494;2023-09-19T08:29:44;20.10;99.90
9768;DHT22;4923;52.520;13.494;2023-09-19T08:32:33;20.00;99.90
9768;DHT22;4923;52.520;13.494;2023-09-19T08:35:20;19.80;99.90
9768;DHT22;4923;52.520;13.494;2023-09-19T08:38:07;19.60;99.90
9768;DHT22;4923;52.520;13.494;2023-09-19T08:40:54;19.60;99.90
9768;DHT22;4923;52.520;13.494;2023-09-19T08:43:40;19.40;99.90
9768;DHT22;4923;52.520;13.494;2023-09-19T08:46:30;19.40;99.90
9768;DHT22;4923;52.520;13.494;2023-09-19T08:49:24;19.60;99.90
9768;DHT22;4923;52.520;13.494;2023-09-19T08:52:20;19.70;99.90
9768;DHT22;4923;52.520;13.494;2023-09-19T08:55:12;19.40;99.90
9768;DHT22;4923;52.520;13.494;2023-09-19T08:58:08;19.50;99.90
9768;DHT22;4923;52.520;13.494;2023-09-19T09:00:58;19.70;99.90
9768;DHT22;4923;52.520;13.494;2023-09-19T09:03:48;19.60;99.90
9768;DHT22;4923;52.520;13.494;2023-09-19T09:06:38;19.60;99.90
9768;DHT22;4923;52.520;13.494;2023-09-19T09:09:25;19.60;99.90
9768;DHT22;4923;52.520;13.494;2023-09-19T09:12:13;19.50;99.90
9768;DHT22;4923;52.520;13.494;2023-09-19T09:15:00;19.40;99.90
9768;DHT22;4923;52.520;13.494;2023-09-19T09:17:50;19.50;99.90
9768;DHT22;4923;52.520;13.494;2023-09-19T09:20:38;19.50;99.90
9768;DHT22;4923;52.520;13.494;2023-09-19T09:23:27;19.60;99.90
9768;DHT22;4923;52.520;13.494;2023-09-19T09:26:15;19.70;99.90
9768;DHT22;4923;52.520;13.494;2023-09-19T09:29:02;19.50;99.90
9768;DHT22;4923;52.520;13.494;2023-09-19T09:31:49;19.80;99.90
9768;DHT22;4923;52.520;13.494;2023-09-19T09:34:36;20.10;99.90
9768;DHT22;4923;52.520;13.494;2023-09-19T09:37:24;20.10;99.90
9768;DHT22;4923;52.520;13.494;2023-09-19T09:40:13;19.90;99.90
9768;DHT22;4923;52.520;13.494;2023-09-19T09:43:30;19.50;99.90
9768;DHT22;4923;52.520;13.494;2023-09-19T09:46:21;19.30;99.90
9768;DHT22;4923;52.520;13.494;2023-09-19T09:49:27;19.60;99.90
9768;DHT22;4923;52.520;13.494;2023-09-19T09:52:19;19.90;99.90
9768;DHT22;4923;52.520;13.494;2023-09-19T09:55:09;19.70;99.90
9768;DHT22;4923;52.520;13.494;2023-09-19T09:58:17;19.60;99.90
9768;DHT22;4923;52.520;13.494;2023-09-19T10:01:05;19.40;99.90
9768;DHT22;4923;52.520;13.494;2023-09-19T10:03:57;19.40;99.90
9768;DHT22;4923;52.520;13.494;2023-09-19T10:06:46;19.30;99.90
9768;DHT22;4923;52.520;13.494;2023-09-19T10:09:44;19.40;99.90
9768;DHT22;4923;52.520;13.494;2023-09-19T10:12:33;19.70;99.90
9768;DHT22;4923;52.520;13.494;2023-09-19T10:15:24;20.20;99.90
9768;DHT22;4923;52.520;13.494;2023-09-19T10:18:15;20.40;99.90
9768;DHT22;4923;52.520;13.494;2023-09-19T10:21:04;20.40;99.90
9768;DHT22;4923;52.520;13.494;2023-09-19T10:23:53;20.40;99.90
9768;DHT22;4923;52.520;13.494;2023-09-19T10:26:44;20.10;99.90
9768;DHT22;4923;52.520;13.494;2023-09-19T10:29:32;20.20;99.90
9768;DHT22;4923;52.520;13.494;2023-09-19T10:32:23;20.40;99.90
9768;DHT22;4923;52.520;13.494;2023-09-19T10:35:13;20.40;99.90
9768;DHT22;4923;52.520;13.494;2023-09-19T10:38:01;20.70;99.90
9768;DHT22;4923;52.520;13.494;2023-09-19T10:40:49;20.90;99.90
9768;DHT22;4923;52.520;13.494;2023-09-19T10:43:38;20.90;99.90
9768;DHT22;4923;52.520;13.494;2023-09-19T10:46:31;21.10;99.90
9768;DHT22;4923;52.520;13.494;2023-09-19T10:49:20;21.20;99.90
9768;DHT22;4923;52.520;13.494;2023-09-19T10:52:08;21.30;99.90
9768;DHT22;4923;52.520;13.494;2023-09-19T10:54:59;21.20;99.90
9768;DHT22;4923;52.520;13.494;2023-09-19T10:57:47;20.80;99.90
9768;DHT22;4923;52.520;13.494;2023-09-19T11:00:50;20.80;99.90
9768;DHT22;4923;52.520;13.494;2023-09-19T11:03:37;20.90;99.90
9768;DHT22;4923;52.520;13.494;2023-09-19T11:06:30;21.10;99.90
9768;DHT22;4923;52.520;13.494;2023-09-19T11:09:17;21.20;99.90
9768;DHT22;4923;52.520;13.494;2023-09-19T11:12:08;21.20;99.90
9768;DHT22;4923;52.520;13.494;2023-09-19T11:14:55;21.20;99.90
9768;DHT22;4923;52.520;13.494;2023-09-19T11:17:42;21.20;99.90
9768;DHT22;4923;52.520;13.494;2023-09-19T11:20:31;21.40;99.90
9768;DHT22;4923;52.520;13.494;2023-09-19T11:23:38;21.50;99.90
9768;DHT22;4923;52.520;13.494;2023-09-19T11:26:40;21.80;99.90
9768;DHT22;4923;52.520;13.494;2023-09-19T11:29:30;21.50;99.90
9768;DHT22;4923;52.520;13.494;2023-09-19T11:35:59;21.80;99.90
9768;DHT22;4923;52.520;13.494;2023-09-19T11:39:00;22.10;99.90
9768;DHT22;4923;52.520;13.494;2023-09-19T11:41:54;22.20;99.90
9768;DHT22;4923;52.520;13.494;2023-09-19T11:44:42;22.30;99.90
9768;DHT22;4923;52.520;13.494;2023-09-19T11:47:30;22.30;99.90
9768;DHT22;4923;52.520;13.494;2023-09-19T11:50:19;22.50;99.90
9768;DHT22;4923;52.520;13.494;2023-09-19T11:53:07;22.50;99.90
9768;DHT22;4923;52.520;13.494;2023-09-19T11:55:58;22.30;99.90
9768;DHT22;4923;52.520;13.494;2023-09-19T11:58:46;22.20;99.90
9768;DHT22;4923;52.520;13.494;2023-09-19T12:01:43;22.40;99.90
9768;DHT22;4923;52.520;13.494;2023-09-19T12:04:38;22.00;99.90
9768;DHT22;4923;52.520;13.494;2023-09-19T12:07:25;22.00;99.90
9768;DHT22;4923;52.520;13.494;2023-09-19T12:10:12;21.60;99.90
9768;DHT22;4923;52.520;13.494;2023-09-19T12:13:01;21.70;99.90
9768;DHT22;4923;52.520;13.494;2023-09-19T12:15:48;21.80;99.90
9768;DHT22;4923;52.520;13.494;2023-09-19T12:18:35;21.90;99.90
9768;DHT22;4923;52.520;13.494;2023-09-19T12:21:27;22.00;99.90
9768;DHT22;4923;52.520;13.494;2023-09-19T12:24:16;22.00;99.90
9768;DHT22;4923;52.520;13.494;2023-09-19T12:27:06;22.10;99.90
9768;DHT22;4923;52.520;13.494;2023-09-19T12:29:54;21.60;99.90
9768;DHT22;4923;52.520;13.494;2023-09-19T12:32:46;21.60;99.90
9768;DHT22;4923;52.520;13.494;2023-09-19T12:35:34;21.50;99.90
9768;DHT22;4923;52.520;13.494;2023-09-19T12:38:25;21.50;99.90
9768;DHT22;4923;52.520;13.494;2023-09-19T12:41:13;21.60;99.90
9768;DHT22;4923;52.520;13.494;2023-09-19T12:44:01;21.70;99.90
9768;DHT22;4923;52.520;13.494;2023-09-19T12:46:56;21.60;99.90
9768;DHT22;4923;52.520;13.494;2023-09-19T12:50:07;21.80;99.90
9768;DHT22;4923;52.520;13.494;2023-09-19T12:52:58;22.00;99.90
9768;DHT22;4923;52.520;13.494;2023-09-19T12:55:46;22.20;99.90
9768;DHT22;4923;52.520;13.494;2023-09-19T12:58:34;22.00;99.90
9768;DHT22;4923;52.520;13.494;2023-09-19T13:01:24;22.20;99.90
9768;DHT22;4923;52.520;13.494;2023-09-19T13:04:15;22.00;99.90
9768;DHT22;4923;52.520;13.494;2023-09-19T13:07:41;22.10;99.90
9768;DHT22;4923;52.520;13.494;2023-09-19T13:10:33;21.80;99.90
9768;DHT22;4923;52.520;13.494;2023-09-19T13:13:24;21.50;99.90
9768;DHT22;4923;52.520;13.494;2023-09-19T13:16:15;21.50;99.90
9768;DHT22;4923;52.520;13.494;2023-09-19T13:19:05;21.80;99.90
9768;DHT22;4923;52.520;13.494;2023-09-19T13:21:53;21.90;99.90
9768;DHT22;4923;52.520;13.494;2023-09-19T13:24:43;21.80;99.90
9768;DHT22;4923;52.520;13.494;2023-09-19T13:27:30;21.70;99.90
9768;DHT22;4923;52.520;13.494;2023-09-19T13:30:17;21.70;99.90
9768;DHT22;4923;52.520;13.494;2023-09-19T13:33:05;21.90;99.90
9768;DHT22;4923;52.520;13.494;2023-09-19T13:35:53;22.00;99.90
9768;DHT22;4923;52.520;13.494;2023-09-19T13:38:42;22.10;99.90
9768;DHT22;4923;52.520;13.494;2023-09-19T13:41:29;22.20;99.90
9768;DHT22;4923;52.520;13.494;2023-09-19T13:44:18;21.90;99.90
9768;DHT22;4923;52.520;13.494;2023-09-19T13:47:05;21.70;99.90
9768;DHT22;4923;52.520;13.494;2023-09-19T13:49:55;21.70;99.90
9768;DHT22;4923;52.520;13.494;2023-09-19T13:52:42;21.40;99.90
9768;DHT22;4923;52.520;13.494;2023-09-19T13:55:31;21.30;99.90
9768;DHT22;4923;52.520;13.494;2023-09-19T13:58:17;21.50;99.90
9768;DHT22;4923;52.520;13.494;2023-09-19T14:01:04;21.40;99.90
9768;DHT22;4923;52.520;13.494;2023-09-19T14:03:51;21.40;99.90
9768;DHT22;4923;52.520;13.494;2023-09-19T14:06:41;21.60;99.90
9768;DHT22;4923;52.520;13.494;2023-09-19T14:09:29;21.80;99.90
9768;DHT22;4923;52.520;13.494;2023-09-19T14:12:17;21.70;99.90
9768;DHT22;4923;52.520;13.494;2023-09-19T14:15:04;21.50;99.90
9768;DHT22;4923;52.520;13.494;2023-09-19T14:17:52;21.50;99.90
9768;DHT22;4923;52.520;13.494;2023-09-19T14:20:40;21.70;99.90
9768;DHT22;4923;52.520;13.494;2023-09-19T14:23:27;21.90;99.90
9768;DHT22;4923;52.520;13.494;2023-09-19T14:26:14;22.00;99.90
9768;DHT22;4923;52.520;13.494;2023-09-19T14:29:03;21.70;99.90
9768;DHT22;4923;52.520;13.494;2023-09-19T14:31:50;21.60;99.90
9768;DHT22;4923;52.520;13.494;2023-09-19T14:34:37;21.60;99.90
9768;DHT22;4923;52.520;13.494;2023-09-19T14:37:27;21.40;99.90
9768;DHT22;4923;52.520;13.494;2023-09-19T14:40:14;21.60;99.90
9768;DHT22;4923;52.520;13.494;2023-09-19T14:43:03;21.60;99.90
9768;DHT22;4923;52.520;13.494;2023-09-19T14:45:51;21.60;99.90
9768;DHT22;4923;52.520;13.494;2023-09-19T14:48:38;21.70;99.90
9768;DHT22;4923;52.520;13.494;2023-09-19T14:51:25;21.50;99.90
9768;DHT22;4923;52.520;13.494;2023-09-19T14:54:12;21.50;99.90
9768;DHT22;4923;52.520;13.494;2023-09-19T14:57:02;21.50;99.90
9768;DHT22;4923;52.520;13.494;2023-09-19T14:59:50;21.60;99.90
9768;DHT22;4923;52.520;13.494;2023-09-19T15:02:38;21.60;99.90
9768;DHT22;4923;52.520;13.494;2023-09-19T15:05:27;21.60;99.90
9768;DHT22;4923;52.520;13.494;2023-09-19T15:08:15;21.60;99.90
9768;DHT22;4923;52.520;13.494;2023-09-19T15:11:02;21.50;99.90
9768;DHT22;4923;52.520;13.494;2023-09-19T15:13:52;21.30;99.90
9768;DHT22;4923;52.520;13.494;2023-09-19T15:16:39;21.30;99.90
9768;DHT22;4923;52.520;13.494;2023-09-19T15:19:28;21.30;99.90
9768;DHT22;4923;52.520;13.494;2023-09-19T15:22:16;21.10;99.90
9768;DHT22;4923;52.520;13.494;2023-09-19T15:25:03;21.10;99.90
9768;DHT22;4923;52.520;13.494;2023-09-19T15:27:51;21.10;99.90
9768;DHT22;4923;52.520;13.494;2023-09-19T15:30:38;21.00;99.90
9768;DHT22;4923;52.520;13.494;2023-09-19T15:33:25;21.00;99.90
9768;DHT22;4923;52.520;13.494;2023-09-19T15:36:14;21.00;99.90
9768;DHT22;4923;52.520;13.494;2023-09-19T15:39:02;21.00;99.90
9768;DHT22;4923;52.520;13.494;2023-09-19T15:41:51;20.90;99.90
9768;DHT22;4923;52.520;13.494;2023-09-19T15:44:40;20.90;99.90
9768;DHT22;4923;52.520;13.494;2023-09-19T15:47:27;20.80;99.90
9768;DHT22;4923;52.520;13.494;2023-09-19T15:50:15;20.80;99.90
9768;DHT22;4923;52.520;13.494;2023-09-19T15:53:03;20.70;99.90
9768;DHT22;4923;52.520;13.494;2023-09-19T15:55:50;20.70;99.90
9768;DHT22;4923;52.520;13.494;2023-09-19T15:58:37;20.70;99.90
9768;DHT22;4923;52.520;13.494;2023-09-19T16:01:24;20.70;99.90
9768;DHT22;4923;52.520;13.494;2023-09-19T16:04:12;20.60;99.90
9768;DHT22;4923;52.520;13.494;2023-09-19T16:06:59;20.70;99.90
9768;DHT22;4923;52.520;13.494;2023-09-19T16:09:48;20.60;99.90
9768;DHT22;4923;52.520;13.494;2023-09-19T16:12:35;20.60;99.90
9768;DHT22;4923;52.520;13.494;2023-09-19T16:15:23;20.50;99.90
9768;DHT22;4923;52.520;13.494;2023-09-19T16:18:10;20.50;99.90
9768;DHT22;4923;52.520;13.494;2023-09-19T16:21:01;20.40;99.90
9768;DHT22;4923;52.520;13.494;2023-09-19T16:23:48;20.40;99.90
9768;DHT22;4923;52.520;13.494;2023-09-19T16:26:37;20.30;99.90
9768;DHT22;4923;52.520;13.494;2023-09-19T16:29:24;20.20;99.90
9768;DHT22;4923;52.520;13.494;2023-09-19T16:32:11;20.10;99.90
9768;DHT22;4923;52.520;13.494;2023-09-19T16:34:58;20.00;99.90
9768;DHT22;4923;52.520;13.494;2023-09-19T16:37:45;19.90;99.90
9768;DHT22;4923;52.520;13.494;2023-09-19T16:40:32;19.80;99.90
9768;DHT22;4923;52.520;13.494;2023-09-19T16:43:21;19.70;99.90
9768;DHT22;4923;52.520;13.494;2023-09-19T16:46:10;19.60;99.90
9768;DHT22;4923;52.520;13.494;2023-09-19T16:48:57;19.50;99.90
9768;DHT22;4923;52.520;13.494;2023-09-19T16:51:44;19.40;99.90
9768;DHT22;4923;52.520;13.494;2023-09-19T16:54:32;19.20;99.90
9768;DHT22;4923;52.520;13.494;2023-09-19T16:57:20;19.10;99.90
9768;DHT22;4923;52.520;13.494;2023-09-19T17:00:10;19.00;99.90
9768;DHT22;4923;52.520;13.494;2023-09-19T17:03:00;19.10;99.90
9768;DHT22;4923;52.520;13.494;2023-09-19T17:05:48;19.00;99.90
9768;DHT22;4923;52.520;13.494;2023-09-19T17:08:35;19.00;99.90
9768;DHT22;4923;52.520;13.494;2023-09-19T17:11:23;18.90;99.90
9768;DHT22;4923;52.520;13.494;2023-09-19T17:14:09;18.80;99.90
9768;DHT22;4923;52.520;13.494;2023-09-19T17:16:57;18.60;99.90
9768;DHT22;4923;52.520;13.494;2023-09-19T17:19:44;18.50;99.90
9768;DHT22;4923;52.520;13.494;2023-09-19T17:22:32;18.50;99.90
9768;DHT22;4923;52.520;13.494;2023-09-19T17:25:19;18.40;99.90
9768;DHT22;4923;52.520;13.494;2023-09-19T17:28:06;18.20;99.90
9768;DHT22;4923;52.520;13.494;2023-09-19T17:30:53;18.10;99.90
9768;DHT22;4923;52.520;13.494;2023-09-19T17:33:42;18.00;99.90
9768;DHT22;4923;52.520;13.494;2023-09-19T17:36:29;17.90;99.90
9768;DHT22;4923;52.520;13.494;2023-09-19T17:39:17;17.80;99.90
9768;DHT22;4923;52.520;13.494;2023-09-19T17:42:04;17.80;99.90
9768;DHT22;4923;52.520;13.494;2023-09-19T17:44:51;17.70;99.90
9768;DHT22;4923;52.520;13.494;2023-09-19T17:47:41;17.60;99.90
9768;DHT22;4923;52.520;13.494;2023-09-19T17:50:29;17.60;99.90
9768;DHT22;4923;52.520;13.494;2023-09-19T17:53:16;17.60;99.90
9768;DHT22;4923;52.520;13.494;2023-09-19T17:56:03;17.50;99.90
9768;DHT22;4923;52.520;13.494;2023-09-19T17:58:50;17.50;99.90
9768;DHT22;4923;52.520;13.494;2023-09-19T18:01:40;17.40;99.90
9768;DHT22;4923;52.520;13.494;2023-09-19T18:04:29;17.30;99.90
9768;DHT22;4923;52.520;13.494;2023-09-19T18:07:17;17.30;99.90